Time;durP1;ratioP1;P1;durP2;ratioP2;P2;SDS_P1;SDS_P2;PMS_P1;PMS_P2;Temp;Humidity;BMP_temperature;BMP_pressure;BME280_temperature;BME280_humidity;BME280_pressure;Samples;Min_cycle;Max_cycle;Signal;HPM_P1;HPM_P2
2021/07/21 00:00:00;;;;;;;14.15;10.82;;;14.00;99.90;;;;;;4936070;28;20043;-74
2021/07/21 00:02:26;;;;;;;16.67;11.10;;;14.00;99.90;;;;;;4936371;29;20032;-75
2021/07/21 00:04:52;;;;;;;13.88;10.15;;;13.80;99.90;;;;;;4954666;29;20047;-75
2021/07/21 00:07:19;;;;;;;15.85;10.80;;;13.60;99.90;;;;;;4936986;29;20039;-75
2021/07/21 00:09:45;;;;;;;17.27;11.63;;;13.50;99.90;;;;;;4936146;29;20051;-84
2021/07/21 00:14:56;;;;;;;14.90;11.02;;;13.50;99.90;;;;;;4951772;28;20075;-76
2021/07/21 00:17:30;;;;;;;20.48;12.18;;;13.40;99.90;;;;;;4946866;29;20569;-75
2021/07/21 00:20:07;;;;;;;13.88;11.10;;;13.30;99.90;;;;;;4957603;29;20108;-75
2021/07/21 00:22:42;;;;;;;20.90;12.43;;;13.30;99.90;;;;;;4939407;29;20402;-75
2021/07/21 00:25:18;;;;;;;18.63;12.20;;;13.40;99.90;;;;;;4940126;29;20042;-75
2021/07/21 00:27:45;;;;;;;13.10;10.77;;;13.40;99.90;;;;;;4939504;29;20027;-75
2021/07/21 00:30:15;;;;;;;13.70;10.48;;;13.50;99.90;;;;;;4938895;29;20040;-75
2021/07/21 00:32:41;;;;;;;13.88;11.27;;;13.60;99.90;;;;;;4950889;29;20035;-75
2021/07/21 00:35:10;;;;;;;17.02;11.55;;;13.60;99.90;;;;;;4955557;28;20051;-74
2021/07/21 00:37:37;;;;;;;14.23;10.70;;;13.40;99.90;;;;;;4960845;28;20405;-75
2021/07/21 00:40:05;;;;;;;14.70;11.25;;;13.30;99.90;;;;;;4948960;29;20028;-75
2021/07/21 00:42:31;;;;;;;14.77;11.10;;;13.20;99.90;;;;;;4953990;28;20043;-75
2021/07/21 00:44:57;;;;;;;17.33;11.52;;;13.10;99.90;;;;;;4948553;28;20039;-76
2021/07/21 00:47:24;;;;;;;17.65;11.57;;;13.10;99.90;;;;;;4972413;28;20054;-75
2021/07/21 00:49:52;;;;;;;16.08;12.10;;;13.10;99.90;;;;;;4956823;29;20038;-75
2021/07/21 00:52:18;;;;;;;15.52;11.57;;;13.00;99.90;;;;;;4954417;28;20043;-74
2021/07/21 00:54:46;;;;;;;14.60;10.52;;;13.00;99.90;;;;;;4971250;28;20055;-74
2021/07/21 00:57:13;;;;;;;16.45;10.93;;;13.00;99.90;;;;;;4950577;28;20048;-74
2021/07/21 00:59:40;;;;;;;17.40;11.57;;;13.10;99.90;;;;;;4965712;28;20051;-74
2021/07/21 01:02:06;;;;;;;16.30;11.63;;;13.10;99.90;;;;;;4938687;29;20082;-75
2021/07/21 01:04:34;;;;;;;21.23;11.25;;;13.10;99.90;;;;;;4970970;28;20044;-78
2021/07/21 01:07:07;;;;;;;14.85;11.02;;;13.10;99.90;;;;;;4945860;29;20034;-75
2021/07/21 01:09:36;;;;;;;17.83;10.70;;;13.10;99.90;;;;;;4956261;29;20042;-75
2021/07/21 01:12:32;;;;;;;13.52;10.35;;;13.00;99.90;;;;;;4956313;28;20066;-75
2021/07/21 01:15:16;;;;;;;17.58;11.30;;;13.00;99.90;;;;;;4941412;28;20051;-75
2021/07/21 01:18:02;;;;;;;16.83;11.18;;;13.00;99.90;;;;;;4975394;28;20044;-75
2021/07/21 01:21:05;;;;;;;20.20;11.50;;;13.20;99.90;;;;;;4971112;28;20148;-75
2021/07/21 01:23:32;;;;;;;17.35;11.13;;;13.20;99.90;;;;;;4953803;28;20047;-75
2021/07/21 01:26:08;;;;;;;18.13;10.45;;;13.10;99.90;;;;;;4953311;28;20379;-75
2021/07/21 01:28:37;;;;;;;13.02;10.55;;;13.10;99.90;;;;;;4952458;29;20047;-75
2021/07/21 01:31:09;;;;;;;14.32;10.77;;;13.10;99.90;;;;;;4952847;28;20052;-75
2021/07/21 01:33:38;;;;;;;17.77;11.77;;;13.10;99.90;;;;;;4952609;28;20062;-74
2021/07/21 01:36:12;;;;;;;16.92;11.20;;;13.10;99.90;;;;;;4966528;28;20126;-74
2021/07/21 01:38:51;;;;;;;13.35;10.45;;;13.00;99.90;;;;;;4937588;29;20039;-74
2021/07/21 01:41:23;;;;;;;14.57;10.98;;;12.90;99.90;;;;;;4952376;29;20043;-74
2021/07/21 01:43:54;;;;;;;17.42;11.55;;;13.00;99.90;;;;;;4936915;29;20043;-74
2021/07/21 01:46:22;;;;;;;15.02;11.20;;;12.80;99.90;;;;;;4952688;28;20047;-75
2021/07/21 01:48:51;;;;;;;16.10;11.63;;;12.70;99.90;;;;;;4964689;28;20039;-75
2021/07/21 01:51:20;;;;;;;17.55;11.55;;;12.60;99.90;;;;;;4964420;28;20413;-75
2021/07/21 01:53:47;;;;;;;17.10;11.85;;;12.60;99.90;;;;;;4944981;28;20047;-74
2021/07/21 01:56:17;;;;;;;16.48;12.00;;;12.60;99.90;;;;;;4952381;29;20331;-74
2021/07/21 01:58:49;;;;;;;15.70;11.35;;;12.60;99.90;;;;;;4951025;29;20055;-74
2021/07/21 02:01:36;;;;;;;15.95;11.88;;;12.50;99.90;;;;;;4962346;28;20054;-75
2021/07/21 02:04:09;;;;;;;15.18;11.43;;;12.50;99.90;;;;;;4954256;28;20036;-76
2021/07/21 02:06:36;;;;;;;16.95;11.30;;;12.50;99.90;;;;;;4946271;29;20035;-74
2021/07/21 02:09:06;;;;;;;17.60;12.18;;;12.60;99.90;;;;;;4947847;29;20397;-74
2021/07/21 02:11:34;;;;;;;18.63;11.70;;;12.50;99.90;;;;;;4951728;28;20474;-74
2021/07/21 02:14:03;;;;;;;17.15;12.23;;;12.50;99.90;;;;;;4964012;28;20059;-75
2021/07/21 02:16:45;;;;;;;17.17;12.57;;;12.40;99.90;;;;;;4957732;28;20043;-74
2021/07/21 02:19:19;;;;;;;16.42;11.90;;;12.50;99.90;;;;;;4951835;28;20047;-75
2021/07/21 02:21:58;;;;;;;17.27;11.77;;;12.50;99.90;;;;;;4964216;28;20043;-75
2021/07/21 02:24:29;;;;;;;18.92;10.60;;;12.50;99.90;;;;;;4954262;28;20039;-75
2021/07/21 02:27:14;;;;;;;17.17;11.23;;;12.60;99.90;;;;;;4936980;29;20070;-75
2021/07/21 02:29:42;;;;;;;16.70;10.40;;;12.50;99.90;;;;;;4951283;28;20048;-75
2021/07/21 02:32:23;;;;;;;13.35;9.90;;;12.50;99.90;;;;;;4960098;28;20047;-74
2021/07/21 02:34:50;;;;;;;15.95;10.68;;;12.50;99.90;;;;;;4954657;28;20043;-75
2021/07/21 02:37:18;;;;;;;15.88;10.88;;;12.40;99.90;;;;;;4969012;28;20047;-74
2021/07/21 02:39:48;;;;;;;17.45;10.88;;;12.30;99.90;;;;;;4952947;29;20043;-74
2021/07/21 02:42:17;;;;;;;14.00;10.70;;;12.30;99.90;;;;;;4942376;29;20082;-74
2021/07/21 02:44:47;;;;;;;17.67;11.57;;;12.30;99.90;;;;;;4951907;28;20477;-74
2021/07/21 02:47:15;;;;;;;15.43;10.73;;;12.30;99.90;;;;;;4945922;29;20038;-74
2021/07/21 02:49:45;;;;;;;15.43;10.90;;;12.30;99.90;;;;;;4950103;29;20055;-75
2021/07/21 02:52:26;;;;;;;15.95;11.10;;;12.20;99.90;;;;;;4936506;28;20051;-75
2021/07/21 02:55:11;;;;;;;16.88;11.18;;;12.10;99.90;;;;;;4935905;29;20352;-73
2021/07/21 02:58:09;;;;;;;17.83;11.85;;;12.10;99.90;;;;;;4959057;28;20047;-74
2021/07/21 03:00:40;;;;;;;16.92;12.15;;;12.10;99.90;;;;;;4952066;28;20047;-75
2021/07/21 03:03:19;;;;;;;18.75;11.57;;;12.10;99.90;;;;;;4954783;29;20393;-74
2021/07/21 03:05:47;;;;;;;14.95;11.55;;;12.10;99.90;;;;;;4954118;29;20046;-74
2021/07/21 03:08:19;;;;;;;15.70;11.57;;;12.00;99.90;;;;;;4970069;28;20039;-74
2021/07/21 03:10:54;;;;;;;14.95;11.50;;;11.90;99.90;;;;;;4955399;28;20039;-74
2021/07/21 03:13:29;;;;;;;14.90;11.07;;;11.90;99.90;;;;;;4953038;28;20052;-74
2021/07/21 03:15:59;;;;;;;17.95;11.98;;;11.90;99.90;;;;;;4973586;28;20500;-75
2021/07/21 03:18:40;;;;;;;17.77;11.77;;;11.90;99.90;;;;;;4937710;29;20047;-75
2021/07/21 03:21:08;;;;;;;17.67;12.32;;;11.80;99.90;;;;;;4956863;28;20048;-74
2021/07/21 03:23:39;;;;;;;17.17;11.55;;;11.80;99.90;;;;;;4963717;28;20035;-74
2021/07/21 03:26:25;;;;;;;18.38;13.25;;;11.80;99.90;;;;;;4947163;29;20046;-76
2021/07/21 03:28:54;;;;;;;20.60;12.90;;;11.90;99.90;;;;;;4935528;29;20054;-76
2021/07/21 03:31:23;;;;;;;14.07;10.32;;;11.90;99.90;;;;;;4953849;28;20381;-75
2021/07/21 03:34:06;;;;;;;18.52;12.70;;;11.80;99.90;;;;;;4949631;28;20055;-75
2021/07/21 03:36:43;;;;;;;17.58;11.65;;;11.80;99.90;;;;;;4936103;29;20036;-75
2021/07/21 03:39:34;;;;;;;17.00;11.60;;;11.70;99.90;;;;;;4951832;28;20047;-75
2021/07/21 03:42:28;;;;;;;18.38;12.00;;;11.70;99.90;;;;;;4960414;28;20039;-75
2021/07/21 03:45:03;;;;;;;18.58;12.00;;;11.70;99.90;;;;;;4956140;28;20401;-75
2021/07/21 03:47:30;;;;;;;18.42;11.90;;;11.70;99.90;;;;;;4968298;28;20047;-75
2021/07/21 03:49:57;;;;;;;15.90;12.35;;;11.80;99.90;;;;;;4952904;29;20108;-79
2021/07/21 03:52:29;;;;;;;17.02;12.02;;;11.80;99.90;;;;;;4952462;28;20074;-75
2021/07/21 03:55:18;;;;;;;16.05;11.32;;;11.80;99.90;;;;;;4924260;29;20046;-75
2021/07/21 03:58:11;;;;;;;17.30;11.82;;;11.90;99.90;;;;;;4954650;28;20296;-75
2021/07/21 04:00:52;;;;;;;16.65;10.98;;;11.90;99.90;;;;;;4953593;29;20064;-75
2021/07/21 04:03:25;;;;;;;14.73;10.82;;;11.90;99.90;;;;;;4966888;28;20482;-74
2021/07/21 04:06:03;;;;;;;19.10;12.13;;;11.90;99.90;;;;;;4968296;28;20039;-74
2021/07/21 04:08:49;;;;;;;17.25;12.15;;;12.00;99.90;;;;;;4938807;29;20036;-74
2021/07/21 04:11:19;;;;;;;20.40;11.68;;;11.90;99.90;;;;;;4964766;28;20051;-74
2021/07/21 04:13:47;;;;;;;18.52;11.80;;;11.90;99.90;;;;;;4943186;29;20043;-74
2021/07/21 04:16:23;;;;;;;16.77;12.10;;;12.00;99.90;;;;;;4968852;28;20377;-74
2021/07/21 04:18:50;;;;;;;16.73;11.32;;;12.00;99.90;;;;;;4953119;28;20050;-74
2021/07/21 04:21:17;;;;;;;17.10;11.77;;;12.10;99.90;;;;;;4953465;29;20032;-74
2021/07/21 04:23:49;;;;;;;19.00;10.90;;;12.10;99.90;;;;;;4950485;29;20472;-75
2021/07/21 04:26:17;;;;;;;13.98;10.63;;;12.10;99.90;;;;;;4952964;29;20454;-75
2021/07/21 04:28:45;;;;;;;14.48;10.82;;;12.10;99.90;;;;;;4933539;29;20044;-74
2021/07/21 04:31:13;;;;;;;16.13;10.43;;;12.30;99.90;;;;;;4960754;28;20043;-74
2021/07/21 04:33:42;;;;;;;15.55;10.23;;;12.30;99.90;;;;;;4959794;28;20048;-74
2021/07/21 04:36:10;;;;;;;15.10;10.32;;;12.40;99.90;;;;;;4964749;28;20405;-74
2021/07/21 04:38:40;;;;;;;13.93;9.82;;;12.60;99.90;;;;;;4960148;28;20040;-74
2021/07/21 04:41:08;;;;;;;15.73;9.45;;;13.00;99.90;;;;;;4951304;29;20058;-74
2021/07/21 04:43:55;;;;;;;11.52;8.05;;;13.40;99.90;;;;;;4945279;29;20035;-74
2021/07/21 04:46:36;;;;;;;11.00;8.10;;;13.80;99.90;;;;;;4958503;28;20070;-74
2021/07/21 04:49:06;;;;;;;13.27;8.27;;;14.30;99.90;;;;;;4951478;29;20031;-73
2021/07/21 04:51:33;;;;;;;9.80;7.50;;;14.80;99.90;;;;;;4967335;28;20039;-74
2021/07/21 04:54:10;;;;;;;11.40;8.65;;;15.00;99.90;;;;;;4966990;28;20058;-74
2021/07/21 04:56:38;;;;;;;10.57;8.23;;;15.30;99.90;;;;;;4967132;28;20080;-74
2021/07/21 04:59:05;;;;;;;14.40;7.53;;;15.50;99.90;;;;;;4978579;28;20047;-74
2021/07/21 05:01:34;;;;;;;10.23;8.10;;;15.40;99.90;;;;;;4979695;28;20058;-71
2021/07/21 05:04:02;;;;;;;11.80;8.95;;;15.50;99.90;;;;;;4962605;28;20504;-74
2021/07/21 05:06:48;;;;;;;10.13;7.75;;;15.50;99.90;;;;;;4955608;29;20370;-73
2021/07/21 05:09:15;;;;;;;12.32;8.10;;;15.80;99.90;;;;;;4954211;28;20055;-74
2021/07/21 05:11:53;;;;;;;13.73;8.55;;;15.90;99.80;;;;;;4936437;29;20489;-75
2021/07/21 05:14:20;;;;;;;9.02;7.68;;;15.90;99.80;;;;;;4970524;28;20504;-75
2021/07/21 05:17:15;;;;;;;9.60;7.53;;;16.00;99.30;;;;;;4946681;28;20044;-75
2021/07/21 05:19:41;;;;;;;10.13;7.00;;;16.00;99.40;;;;;;4948173;29;20460;-75
2021/07/21 05:22:07;;;;;;;12.60;7.55;;;16.10;99.10;;;;;;4958395;28;20051;-75
2021/07/21 05:24:35;;;;;;;12.65;7.78;;;16.30;98.60;;;;;;4978178;28;20481;-75
2021/07/21 05:27:03;;;;;;;10.95;8.18;;;16.50;97.90;;;;;;4973398;28;20388;-75
2021/07/21 05:29:32;;;;;;;9.57;7.95;;;17.00;97.00;;;;;;4954477;28;20051;-75
2021/07/21 05:32:17;;;;;;;11.38;7.70;;;16.80;96.90;;;;;;4961172;28;20413;-75
2021/07/21 05:35:03;;;;;;;12.35;7.75;;;16.60;96.80;;;;;;4954419;29;20043;-74
2021/07/21 05:37:48;;;;;;;10.60;7.85;;;16.60;97.10;;;;;;4969827;28;20051;-74
2021/07/21 05:40:19;;;;;;;9.38;7.95;;;16.70;97.10;;;;;;4970402;28;20054;-74
2021/07/21 05:43:08;;;;;;;11.85;8.10;;;16.50;97.40;;;;;;4954632;28;20058;-75
2021/07/21 05:45:49;;;;;;;9.00;7.70;;;16.80;97.10;;;;;;4963968;28;20046;-74
2021/07/21 05:48:17;;;;;;;8.90;7.00;;;17.20;96.50;;;;;;4961623;28;20051;-74
2021/07/21 05:51:03;;;;;;;11.48;7.25;;;17.60;95.50;;;;;;4954948;28;20046;-74
2021/07/21 05:53:30;;;;;;;7.40;6.57;;;18.00;94.40;;;;;;4944118;28;20058;-75
2021/07/21 05:55:57;;;;;;;8.30;7.20;;;18.50;93.20;;;;;;4968979;28;20482;-74
2021/07/21 05:58:32;;;;;;;12.05;7.50;;;18.30;92.90;;;;;;4975277;28;20035;-74
2021/07/21 06:01:04;;;;;;;9.07;7.18;;;18.50;93.40;;;;;;4970314;28;20054;-73
2021/07/21 06:03:33;;;;;;;11.82;7.70;;;18.40;92.70;;;;;;4953342;29;20075;-74
2021/07/21 06:06:17;;;;;;;10.50;6.88;;;18.70;92.10;;;;;;4954717;29;20597;-74
2021/07/21 06:09:03;;;;;;;9.98;7.35;;;19.00;91.20;;;;;;4953493;29;20054;-74
2021/07/21 06:11:40;;;;;;;8.25;6.45;;;19.10;91.10;;;;;;4953561;28;20039;-74
2021/07/21 06:14:07;;;;;;;11.07;7.35;;;19.20;90.90;;;;;;4953968;28;20051;-75
2021/07/21 06:16:37;;;;;;;10.35;6.70;;;19.30;90.90;;;;;;4963818;28;20044;-71
2021/07/21 06:19:05;;;;;;;9.60;7.72;;;19.90;90.10;;;;;;4943703;29;20370;-74
2021/07/21 06:21:32;;;;;;;8.00;6.95;;;20.40;88.30;;;;;;4968986;28;20047;-74
2021/07/21 06:24:17;;;;;;;9.63;7.32;;;21.00;86.50;;;;;;4956184;28;20052;-75
2021/07/21 06:26:46;;;;;;;9.82;6.80;;;21.10;84.40;;;;;;4956889;28;20066;-75
2021/07/21 06:29:36;;;;;;;8.15;6.45;;;21.30;82.10;;;;;;4970427;28;20043;-74
2021/07/21 06:32:03;;;;;;;8.00;6.22;;;20.60;84.80;;;;;;4954334;29;20484;-74
2021/07/21 06:34:30;;;;;;;9.52;5.90;;;21.10;83.40;;;;;;4955012;29;20046;-74
2021/07/21 06:37:02;;;;;;;13.38;6.97;;;21.70;81.20;;;;;;4952381;28;20039;-74
2021/07/21 06:39:29;;;;;;;7.18;5.78;;;22.10;78.20;;;;;;4952887;28;20054;-74
2021/07/21 06:41:57;;;;;;;7.85;5.13;;;23.20;74.40;;;;;;4953888;29;20379;-75
2021/07/21 06:44:24;;;;;;;5.80;5.00;;;23.30;72.70;;;;;;4969059;28;20050;-75
2021/07/21 06:47:06;;;;;;;9.48;5.28;;;22.50;73.30;;;;;;4953224;28;20043;-74
2021/07/21 06:49:33;;;;;;;5.90;5.15;;;23.00;71.20;;;;;;4968055;28;20477;-74
2021/07/21 06:52:00;;;;;;;7.70;5.40;;;22.70;70.60;;;;;;4953681;29;20043;-74
2021/07/21 06:54:32;;;;;;;8.73;4.75;;;22.40;71.50;;;;;;4967724;28;20470;-74
2021/07/21 06:57:19;;;;;;;6.65;5.35;;;23.80;70.30;;;;;;4959479;28;20050;-75
2021/07/21 07:00:20;;;;;;;7.70;5.13;;;23.20;69.50;;;;;;4953349;28;20516;-74
2021/07/21 07:03:10;;;;;;;7.97;4.85;;;21.40;73.10;;;;;;4960934;28;20035;-74
2021/07/21 07:05:57;;;;;;;10.50;5.95;;;23.10;71.10;;;;;;4941551;28;20074;-74
2021/07/21 07:08:41;;;;;;;7.22;4.93;;;23.80;68.80;;;;;;4953366;29;20035;-73
2021/07/21 07:11:26;;;;;;;6.75;5.07;;;23.70;68.40;;;;;;4936168;29;20151;-74
2021/07/21 07:13:52;;;;;;;7.43;5.63;;;23.40;68.10;;;;;;4951480;29;20039;-74
2021/07/21 07:16:18;;;;;;;7.45;5.32;;;23.30;67.70;;;;;;4954584;29;20096;-74
2021/07/21 07:18:45;;;;;;;7.35;4.82;;;22.60;69.60;;;;;;4955778;28;20050;-74
2021/07/21 07:21:11;;;;;;;6.07;4.90;;;22.30;68.80;;;;;;4952669;29;20043;-74
2021/07/21 07:23:37;;;;;;;8.25;5.05;;;22.10;69.70;;;;;;4945343;29;20039;-74
2021/07/21 07:26:04;;;;;;;22.35;16.98;;;22.10;70.40;;;;;;4952838;29;20050;-74
2021/07/21 07:28:31;;;;;;;7.05;5.45;;;23.30;68.00;;;;;;4942005;29;20031;-74
2021/07/21 07:30:57;;;;;;;6.50;5.18;;;23.00;66.60;;;;;;4953426;29;20027;-75
2021/07/21 07:33:23;;;;;;;6.78;4.63;;;22.80;68.00;;;;;;4952807;29;20039;-75
2021/07/21 07:35:49;;;;;;;6.70;4.75;;;23.80;66.30;;;;;;4954406;29;20488;-73
2021/07/21 07:38:15;;;;;;;5.05;4.55;;;22.50;67.50;;;;;;4953356;29;20046;-73
2021/07/21 07:40:43;;;;;;;7.47;5.00;;;22.60;66.90;;;;;;4975142;28;20050;-74
2021/07/21 07:43:09;;;;;;;7.47;5.30;;;23.30;64.80;;;;;;4961013;29;20046;-73
2021/07/21 07:45:36;;;;;;;5.85;4.65;;;22.50;66.70;;;;;;4948809;29;20031;-72
2021/07/21 07:48:03;;;;;;;7.25;4.72;;;22.60;65.20;;;;;;4965169;29;20023;-74
2021/07/21 07:50:30;;;;;;;8.48;4.30;;;23.10;65.20;;;;;;4965235;28;20043;-75
2021/07/21 07:52:56;;;;;;;7.00;5.38;;;23.90;62.60;;;;;;4939805;29;20164;-75
2021/07/21 07:55:23;;;;;;;6.22;4.80;;;24.40;61.70;;;;;;4950394;29;20031;-74
2021/07/21 07:57:50;;;;;;;7.03;5.05;;;23.50;62.70;;;;;;4953747;28;20047;-73
2021/07/21 08:00:19;;;;;;;6.18;4.70;;;23.00;63.50;;;;;;4953176;28;20051;-73
2021/07/21 08:02:46;;;;;;;7.22;4.60;;;23.50;62.80;;;;;;4953573;28;20043;-74
2021/07/21 08:05:12;;;;;;;5.78;4.13;;;23.20;63.50;;;;;;4953396;28;20044;-73
2021/07/21 08:07:39;;;;;;;9.70;4.72;;;23.10;62.80;;;;;;4953646;29;20381;-74
2021/07/21 08:10:10;;;;;;;6.18;5.35;;;23.90;64.00;;;;;;4953351;29;20043;-74
2021/07/21 08:12:36;;;;;;;6.93;5.43;;;24.10;60.40;;;;;;4952723;28;20050;-74
2021/07/21 08:15:03;;;;;;;5.65;4.78;;;24.40;60.50;;;;;;4951664;29;20043;-73
2021/07/21 08:17:29;;;;;;;7.03;4.90;;;24.50;61.50;;;;;;4966827;28;20043;-74
2021/07/21 08:19:55;;;;;;;12.07;5.80;;;24.40;60.00;;;;;;4953246;29;20031;-73
2021/07/21 08:22:21;;;;;;;4.88;4.38;;;24.70;60.40;;;;;;4952862;29;20476;-73
2021/07/21 08:24:47;;;;;;;9.32;5.03;;;24.40;59.60;;;;;;4952961;29;20035;-73
2021/07/21 08:27:15;;;;;;;6.20;4.38;;;23.70;60.80;;;;;;4951858;29;20043;-74
2021/07/21 08:29:42;;;;;;;6.68;4.85;;;24.10;60.90;;;;;;4952489;29;20035;-73
2021/07/21 08:32:08;;;;;;;5.95;4.30;;;23.90;59.70;;;;;;4952674;29;20074;-73
2021/07/21 08:34:34;;;;;;;6.13;4.72;;;24.20;59.90;;;;;;4954507;28;20066;-73
2021/07/21 08:37:00;;;;;;;5.63;4.57;;;24.90;59.00;;;;;;4956340;29;20042;-74
2021/07/21 08:39:27;;;;;;;6.40;4.70;;;24.60;58.50;;;;;;4957684;28;20046;-74
2021/07/21 08:41:53;;;;;;;6.65;4.10;;;24.60;58.80;;;;;;4955416;29;20054;-73
2021/07/21 08:44:20;;;;;;;4.85;4.35;;;24.90;56.10;;;;;;4956388;29;20049;-74
2021/07/21 08:46:47;;;;;;;5.50;4.32;;;25.40;56.20;;;;;;4956566;29;20039;-73
2021/07/21 08:49:13;;;;;;;5.60;4.22;;;25.90;55.00;;;;;;4956129;28;20054;-73
2021/07/21 08:51:40;;;;;;;6.07;4.10;;;24.70;54.70;;;;;;4956821;28;20047;-73
2021/07/21 08:54:08;;;;;;;5.72;5.03;;;25.20;56.80;;;;;;4955973;29;20050;-74
2021/07/21 08:56:34;;;;;;;5.82;4.65;;;25.10;57.50;;;;;;4938532;29;20036;-74
2021/07/21 08:59:01;;;;;;;5.93;4.57;;;24.10;58.90;;;;;;4954010;29;20062;-75
2021/07/21 09:01:27;;;;;;;6.03;4.28;;;23.70;59.20;;;;;;4953422;29;20409;-73
2021/07/21 09:03:54;;;;;;;6.85;4.90;;;23.80;58.50;;;;;;4956278;29;20042;-73
2021/07/21 09:06:20;;;;;;;8.68;4.72;;;23.70;58.70;;;;;;4956043;28;20050;-73
2021/07/21 09:08:46;;;;;;;6.38;4.78;;;24.60;58.50;;;;;;4963259;28;20043;-74
2021/07/21 09:11:12;;;;;;;10.43;5.13;;;24.60;58.30;;;;;;4959650;29;20480;-73
2021/07/21 09:13:39;;;;;;;6.00;4.32;;;24.70;56.80;;;;;;4956679;29;20050;-73
2021/07/21 09:16:06;;;;;;;10.32;5.97;;;24.30;57.80;;;;;;4941637;29;20032;-73
2021/07/21 09:18:53;;;;;;;5.97;4.78;;;25.00;57.50;;;;;;4951592;28;20047;-74
2021/07/21 09:21:22;;;;;;;5.90;4.45;;;24.80;57.80;;;;;;4955827;29;20038;-72
2021/07/21 09:23:57;;;;;;;7.10;5.00;;;24.20;57.70;;;;;;4954657;29;20090;-73
2021/07/21 09:26:27;;;;;;;8.18;5.25;;;24.40;57.30;;;;;;4956628;28;20043;-74
2021/07/21 09:28:54;;;;;;;6.25;4.93;;;25.30;57.60;;;;;;4955284;29;20058;-74
2021/07/21 09:31:33;;;;;;;7.40;5.85;;;26.40;55.70;;;;;;4938804;29;20055;-73
2021/07/21 09:34:17;;;;;;;6.35;5.60;;;25.60;56.40;;;;;;4955281;29;20054;-73
2021/07/21 09:36:44;;;;;;;6.63;5.45;;;23.90;59.80;;;;;;4950852;29;20454;-72
2021/07/21 09:39:11;;;;;;;7.32;5.57;;;24.20;58.70;;;;;;4943963;29;20060;-73
2021/07/21 09:41:39;;;;;;;7.70;5.32;;;24.90;58.80;;;;;;4939831;29;20050;-73
2021/07/21 09:44:06;;;;;;;8.05;5.63;;;24.70;57.30;;;;;;4955791;29;20042;-74
2021/07/21 09:46:34;;;;;;;6.82;4.57;;;24.30;57.90;;;;;;4954976;28;20040;-73
2021/07/21 09:49:00;;;;;;;6.88;5.35;;;24.40;57.90;;;;;;4955466;28;20047;-74
2021/07/21 09:51:31;;;;;;;8.25;5.45;;;24.70;57.30;;;;;;4957389;29;20108;-74
2021/07/21 09:54:12;;;;;;;6.90;4.65;;;24.60;56.70;;;;;;4954337;29;20043;-73
2021/07/21 09:56:38;;;;;;;6.68;5.35;;;24.80;58.00;;;;;;4956012;28;20052;-73
2021/07/21 09:59:32;;;;;;;9.18;4.90;;;25.20;57.00;;;;;;4955724;28;20051;-74
2021/07/21 10:02:16;;;;;;;9.77;5.15;;;25.00;56.80;;;;;;4959782;28;20058;-73
2021/07/21 10:04:46;;;;;;;9.02;5.35;;;24.40;57.80;;;;;;4964299;28;20109;-72
2021/07/21 10:07:42;;;;;;;8.93;5.03;;;25.00;57.50;;;;;;4936932;29;20035;-71
2021/07/21 10:10:15;;;;;;;7.18;5.65;;;24.80;56.30;;;;;;4937423;29;20047;-72
2021/07/21 10:12:41;;;;;;;8.23;5.57;;;24.80;57.10;;;;;;4938793;28;20044;-72
2021/07/21 10:15:08;;;;;;;6.25;4.28;;;24.60;57.40;;;;;;4953874;28;20394;-73
2021/07/21 10:17:35;;;;;;;6.93;5.00;;;24.90;56.70;;;;;;4946520;29;20039;-73
2021/07/21 10:20:01;;;;;;;7.07;4.78;;;24.20;57.80;;;;;;4947626;29;20031;-72
2021/07/21 10:22:27;;;;;;;6.05;5.00;;;24.30;57.00;;;;;;4941018;29;20035;-74
2021/07/21 10:24:56;;;;;;;8.38;4.93;;;24.40;57.90;;;;;;4941769;28;20052;-73
2021/07/21 10:27:22;;;;;;;7.40;5.22;;;24.10;58.10;;;;;;4948501;29;20038;-72
2021/07/21 10:29:51;;;;;;;6.30;5.53;;;24.30;57.40;;;;;;4954956;29;20035;-72
2021/07/21 10:32:18;;;;;;;7.00;5.07;;;24.40;56.60;;;;;;4954531;29;20047;-73
2021/07/21 10:34:46;;;;;;;7.28;5.35;;;24.40;57.50;;;;;;4953260;28;20417;-73
2021/07/21 10:37:12;;;;;;;6.45;5.32;;;24.30;56.30;;;;;;4954950;29;20034;-73
2021/07/21 10:39:39;;;;;;;8.95;5.90;;;24.20;57.20;;;;;;4942547;29;20418;-73
2021/07/21 10:42:08;;;;;;;10.00;5.55;;;24.30;57.40;;;;;;4936611;29;20056;-72
2021/07/21 10:44:34;;;;;;;6.72;5.32;;;24.40;57.90;;;;;;4947390;29;20036;-73
2021/07/21 10:47:00;;;;;;;9.23;5.88;;;24.20;56.80;;;;;;4945930;29;20462;-74
2021/07/21 10:54:54;;;;;;;6.45;5.22;;;24.20;57.60;;;;;;4942343;28;19926;-72
2021/07/21 11:00:17;;;;;;;7.60;5.03;;;24.30;56.90;;;;;;4969403;28;20051;-74
2021/07/21 11:02:45;;;;;;;7.65;5.97;;;24.00;57.40;;;;;;4954762;29;20027;-73
2021/07/21 11:05:32;;;;;;;8.75;5.13;;;24.20;57.50;;;;;;4953078;29;20039;-74
2021/07/21 11:08:03;;;;;;;6.53;4.80;;;24.10;56.50;;;;;;4948439;29;20372;-74
2021/07/21 11:10:38;;;;;;;8.25;5.65;;;24.10;57.60;;;;;;4937505;29;20031;-73
2021/07/21 11:13:13;;;;;;;7.22;4.70;;;24.50;56.00;;;;;;4954065;29;20031;-73
2021/07/21 11:15:46;;;;;;;7.93;5.65;;;24.30;55.70;;;;;;4944537;28;20051;-75
2021/07/21 11:18:36;;;;;;;7.10;5.43;;;24.20;56.30;;;;;;4954842;28;20047;-72
2021/07/21 11:21:07;;;;;;;9.18;6.00;;;24.40;55.50;;;;;;4969801;28;20405;-73
2021/07/21 11:23:47;;;;;;;7.85;5.03;;;24.40;55.30;;;;;;4953708;28;20035;-72
2021/07/21 11:26:34;;;;;;;;;;;24.40;56.20;;;;;;4953805;29;20039;-73
2021/07/21 11:29:25;;;;;;;7.20;5.75;;;24.30;56.40;;;;;;4968492;28;19914;-72
2021/07/21 11:31:52;;;;;;;7.10;4.82;;;24.60;55.10;;;;;;4952642;29;20457;-72
2021/07/21 11:34:29;;;;;;;6.25;5.30;;;24.70;55.40;;;;;;4943608;29;20047;-74
2021/07/21 11:37:00;;;;;;;7.30;5.60;;;24.50;55.40;;;;;;4944830;29;20401;-73
2021/07/21 11:39:41;;;;;;;6.72;4.72;;;24.60;55.10;;;;;;4946671;29;20140;-73
2021/07/21 11:45:07;;;;;;;7.53;5.15;;;24.40;55.50;;;;;;4960574;28;20043;-74
2021/07/21 11:47:39;;;;;;;5.53;4.75;;;24.70;56.50;;;;;;4953659;29;20039;-73
2021/07/21 11:50:41;;;;;;;7.10;4.88;;;25.00;55.20;;;;;;4955129;29;20046;-74
2021/07/21 11:53:09;;;;;;;6.93;5.75;;;24.70;54.40;;;;;;4974714;28;20043;-74
2021/07/21 11:55:37;;;;;;;7.75;5.20;;;24.70;53.90;;;;;;4953422;29;20132;-75
2021/07/21 11:58:11;;;;;;;7.45;5.35;;;24.50;54.20;;;;;;4942948;29;20047;-75
2021/07/21 12:00:37;;;;;;;7.55;5.13;;;24.60;54.10;;;;;;4952466;29;20055;-73
2021/07/21 12:03:06;;;;;;;9.27;5.40;;;24.30;54.10;;;;;;4952951;29;20039;-74
2021/07/21 12:05:33;;;;;;;6.32;5.63;;;24.50;55.20;;;;;;4943235;29;20401;-73
2021/07/21 12:08:06;;;;;;;6.65;5.78;;;24.80;53.80;;;;;;4935180;29;20040;-74
2021/07/21 12:10:33;;;;;;;7.07;4.93;;;24.80;53.30;;;;;;4939126;29;20039;-72
2021/07/21 12:13:10;;;;;;;7.00;5.40;;;24.70;53.50;;;;;;4958096;29;20043;-73
2021/07/21 12:15:38;;;;;;;7.32;5.60;;;24.70;54.20;;;;;;4959057;29;20046;-74
2021/07/21 12:18:08;;;;;;;5.53;4.68;;;24.80;53.60;;;;;;4951256;28;20044;-73
2021/07/21 12:20:34;;;;;;;6.57;4.70;;;24.90;52.40;;;;;;4958104;29;20054;-73
2021/07/21 12:23:00;;;;;;;7.30;4.70;;;24.70;53.20;;;;;;4966653;29;20039;-73
2021/07/21 12:25:30;;;;;;;5.80;4.82;;;24.70;54.40;;;;;;4961070;29;20371;-73
2021/07/21 12:27:58;;;;;;;7.25;4.70;;;24.80;53.40;;;;;;4946762;28;20644;-73
2021/07/21 12:30:26;;;;;;;6.57;4.85;;;25.10;53.90;;;;;;4941856;29;20039;-74
2021/07/21 12:32:53;;;;;;;5.20;4.60;;;25.40;52.40;;;;;;4956740;29;20039;-76
2021/07/21 12:35:25;;;;;;;6.60;5.05;;;24.90;53.60;;;;;;4957490;29;20044;-74
2021/07/21 12:37:53;;;;;;;7.03;5.10;;;24.90;52.60;;;;;;4956137;28;20054;-73
2021/07/21 12:40:21;;;;;;;6.13;4.93;;;24.90;53.40;;;;;;4956428;28;20054;-72
2021/07/21 12:42:55;;;;;;;7.97;5.20;;;25.10;53.40;;;;;;4956771;29;20672;-73
2021/07/21 12:45:23;;;;;;;8.30;4.80;;;25.40;53.60;;;;;;4955944;28;20051;-73
2021/07/21 12:47:52;;;;;;;5.85;4.70;;;25.60;53.50;;;;;;4957355;29;20577;-73
2021/07/21 12:50:30;;;;;;;7.43;5.18;;;25.40;52.00;;;;;;4939125;29;20031;-74
2021/07/21 12:53:09;;;;;;;7.50;4.95;;;25.50;52.00;;;;;;4939092;28;20051;-73
2021/07/21 12:55:48;;;;;;;6.93;4.70;;;25.70;51.70;;;;;;4954588;28;20055;-73
2021/07/21 12:58:18;;;;;;;5.07;4.22;;;25.50;52.20;;;;;;4954694;29;20058;-73
2021/07/21 13:00:52;;;;;;;6.10;4.45;;;25.50;51.30;;;;;;4956374;29;20057;-73
2021/07/21 13:03:20;;;;;;;6.10;4.90;;;25.40;52.50;;;;;;4956026;29;20380;-72
2021/07/21 13:05:46;;;;;;;7.00;4.85;;;25.60;51.40;;;;;;4956415;28;20047;-73
2021/07/21 13:08:27;;;;;;;6.18;4.40;;;26.00;51.50;;;;;;4955388;29;20031;-73
2021/07/21 13:11:11;;;;;;;5.68;4.38;;;25.70;51.20;;;;;;4955046;29;20034;-72
2021/07/21 13:13:40;;;;;;;7.07;5.00;;;25.80;51.30;;;;;;4956436;29;20050;-73
2021/07/21 13:16:13;;;;;;;8.43;4.15;;;25.70;50.20;;;;;;4955591;29;20035;-73